< < Back
Terminal Aerodrome Forecast


Current Version              Previous Versions:   1  2  3  4  5  6  7  8  9  

Terminal Aerodrome Forecast

613
FTUS44 KMOB 240900 AAD
TAFMOB
TAF AMD
KMOB 240918Z 2409/2506 00000KT 1/2SM FG BKN003 BKN060
      TEMPO 2409/2412 1/4SM FG VV001
     FM241500 19008KT P6SM FEW040 SCT250=



Latest METAR

180
SAUS80 KWBC 241100 CCA
MTRMOB
METAR KMOB 241056Z 00000KT 1/2SM FG FEW002 SCT060 SCT200 17/17 A2995 RMK
AO2 SLP138 T01720172


USA.gov is the U.S. government's official web portal to all federal, state and local government web resources and services.